Terminal Aerodrome Forecast
Issued by NWS

Home | Current Version | Previous Version | Graphics & Text | Print | Product List | Glossary On
Versions: 1 2 3 4 5 6 7 8 9 10 11 12 13 14 15 16 17 18 19 20
121
FTUS43 KICT 271731
TAFRSL
TAF
KRSL 271731Z 2718/2818 05012KT P6SM SCT020 SCT035 BKN250
     FM272000 01009KT P6SM BKN060
     FM272200 02009KT P6SM SCT110
     FM280300 07006KT P6SM SCT200=

USA.gov is the U.S. government's official web portal to all federal, state and local government web resources and services.